Guymon Municipal Airport
KGUY : now visible

Airfield :











YOU CAN JOIN US ON...

 
LOGIN :

Register | Disclaimer

   EN    FR    IT 

 









Legend :    VFR   Marginal VFR   IFR   Intensive IFR   Very Intensive IFR
Visi :
Ceiling :
>= 8 km
>= 3000ft
5 to 8 km
1000 to 3000 ft
1500m to 5 km
500 to 1000 ft
800 to 1500m
200 to 500 ft
< 800m
< 200 ft
Symbols :   Thunderstorms  Fog  Heavy snow  Heavy precipitations  Wind > 20 kt






- Airport Elevation : 3123 ft


KGUY - Guymon Municipal

CURRENT METAR :
  • 291253Z AUTO 20011KT 10SM CLR 21/16 A3021 RMK AO2 SLP181 T02060161

EXPIRED METARs :
  • 291153Z AUTO 19010KT 10SM CLR 19/17 A3020 RMK AO2 SLP180 T01890167 10217 20189 55003
  • 291053Z AUTO 18011KT 10SM CLR 19/17 A3020 RMK AO2 SLP178 T01940167

TAF KGUY
Valid from the 29 at 12:00 until the 30 at 12:00 UTC


291121Z 2912/3012 19011KT P6SM SKC
FM300100 16018KT P6SM SKC
FM300900 19016G28KT P6SM SKC
KZKC FIR / North America



MET'MAP, your aeronautical weather chart ! - Copyright ORBIFLY December 2007 - Disclaimer

ORBIFLY MET'MAP TEAM :

Programming & Development : Alexandra Zaïnal
Original concept : Baudouin d'Aumeries
Technical & hardware support : Manuel Goepfert
Assistance : Marc-Olivier Méhu




SOURCES & CREDITS :

   NOAA       Earth
Advisory